McDade, Texas
Current Conditions -  °F | °C
As of 2:55 AM on Wednesday 26 Nov 2014 (Local Time) from KGYB Reporting Station
Clear Clear  
Wind Chill: 40°   Ceiling: Unl
Heat Index: 44°   Visibility: 10mi
Dew Point: 34°   Wind: 7mph
Humidity: 67%   Direction: 200°SSW
Pressure: 30.22"   Gusts: NA
Location:  30.28°N, 97.24°W
Report Text: KGYB 260855Z AUTO 20006KT 10SM CLR 07/01 A3022 RMK AO2 T00660009
Loading
Personal Weather Stations






























Interactive Weather Map New forecast layout! Learn more

10-Day Weather Forecast

Advertisements
Track Severe Weather on mobile